Northsea Beta — 9HA2594 — position and weather

sailwx.info

Track history (hours):
 
Tides and Currents Weather Stations Pressure Air Temp Water Temp Dewpoint Dewpoint Depression Visibility Wind Speed Wind Dir Waves Ship Positions

Northsea Beta

Last reported at 2015-Feb-01 02:25 UTC. Time now 2015-Feb-01 11:50 UTC.
Position N 51°53' E 004°19'.

Length 110 m; draft 5.8 m.

Type: Tanker. MMSI: 248970000.

Date/timePositionNaut miles runAvg speedWind from/ knotsBaromVisibWave heightAir tempDewpointWater temp
2015-Feb-01 02:25N 51°53' E 004°19'0 0.0
2015-Feb-01 00:13N 51°53' E 004°19'2 3.0
2015-Jan-31 23:33N 51°54' E 004°16'1110.9
2015-Jan-31 22:33N 51°60' E 004°01'1410.0
2015-Jan-31 21:07N 51°58' E 003°38'24 9.2
2015-Jan-31 18:28N 51°53' E 002°59'8 8.9
2015-Jan-31 17:32N 51°56' E 002°47'40 1.0
2015-Jan-30 02:33N 52°03' E 003°51'8 7.7
2015-Jan-30 01:33N 51°60' E 004°03'1111.4
2015-Jan-30 00:33N 51°53' E 004°19'1 0.0
2015-Jan-29 05:29N 51°53' E 004°19'0 0.0
2015-Jan-28 17:23N 51°53' E 004°19'0 0.0
2015-Jan-28 16:11N 51°53' E 004°19'0 0.0
2015-Jan-28 15:29N 51°53' E 004°19'0 0.0
2015-Jan-28 14:29N 51°53' E 004°19'0 0.0
2015-Jan-28 10:05N 51°53' E 004°19'0 0.5
2015-Jan-28 09:34N 51°53' E 004°18'8 7.5
2015-Jan-28 08:33N 51°58' E 004°09'1110.2
2015-Jan-28 07:28N 52°01' E 003°52'6 6.0
2015-Jan-28 06:31N 51°57' E 003°44'2 1.4
2015-Jan-28 05:19N 51°55' E 003°45'0 0.0
2015-Jan-28 04:31N 51°55' E 003°45'0 0.1
2015-Jan-28 03:31N 51°55' E 003°45'0 0.0
2015-Jan-28 01:04N 51°55' E 003°45'0 0.1
2015-Jan-28 00:07N 51°55' E 003°45'0 0.0
2015-Jan-27 00:13N 51°55' E 003°45'58 9.4
2015-Jan-26 18:04N 51°32' E 002°19'911.4
2015-Jan-26 17:15N 51°24' E 002°11'811.0
2015-Jan-26 16:32N 51°17' E 002°06'1111.5
2015-Jan-26 15:33N 51°10' E 001°52'1212.4
2015-Jan-26 14:33N 51°01' E 001°38'  
2015-Jan-22 08:11N 38°36' W 009°55'4 5.9
2015-Jan-22 07:33N 38°33' W 009°54'6 5.6
2015-Jan-22 06:30N 38°27' W 009°51'8 5.9
2015-Jan-22 05:07N 38°22' W 009°43'6 5.7
2015-Jan-22 04:06N 38°19' W 009°37'4 5.8
2015-Jan-22 03:22N 38°16' W 009°33'  
Track history (hours):
 
Tides and Currents Weather Stations Pressure Air Temp Water Temp Dewpoint Dewpoint Depression Visibility Wind Speed Wind Dir Waves Ship Positions

Northsea Beta

Last reported at 2015-Feb-01 02:25 UTC. Time now 2015-Feb-01 11:50 UTC.
Position N 51°53' E 004°19'.

Length 110 m; draft 5.8 m.

Type: Tanker. MMSI: 248970000.

Date/timePositionNaut miles runAvg speedWind from/ knotsBaromVisibWave heightAir tempDewpointWater temp
2015-Feb-01 02:25N 51°53' E 004°19'0 0.0
2015-Feb-01 00:13N 51°53' E 004°19'2 3.0
2015-Jan-31 23:33N 51°54' E 004°16'1110.9
2015-Jan-31 22:33N 51°60' E 004°01'1410.0
2015-Jan-31 21:07N 51°58' E 003°38'24 9.2
2015-Jan-31 18:28N 51°53' E 002°59'8 8.9
2015-Jan-31 17:32N 51°56' E 002°47'40 1.0
2015-Jan-30 02:33N 52°03' E 003°51'8 7.7
2015-Jan-30 01:33N 51°60' E 004°03'1111.4
2015-Jan-30 00:33N 51°53' E 004°19'1 0.0
2015-Jan-29 05:29N 51°53' E 004°19'0 0.0
2015-Jan-28 17:23N 51°53' E 004°19'0 0.0
2015-Jan-28 16:11N 51°53' E 004°19'0 0.0
2015-Jan-28 15:29N 51°53' E 004°19'0 0.0
2015-Jan-28 14:29N 51°53' E 004°19'0 0.0
2015-Jan-28 10:05N 51°53' E 004°19'0 0.5
2015-Jan-28 09:34N 51°53' E 004°18'8 7.5
2015-Jan-28 08:33N 51°58' E 004°09'1110.2
2015-Jan-28 07:28N 52°01' E 003°52'6 6.0
2015-Jan-28 06:31N 51°57' E 003°44'2 1.4
2015-Jan-28 05:19N 51°55' E 003°45'0 0.0
2015-Jan-28 04:31N 51°55' E 003°45'0 0.1
2015-Jan-28 03:31N 51°55' E 003°45'0 0.0
2015-Jan-28 01:04N 51°55' E 003°45'0 0.1
2015-Jan-28 00:07N 51°55' E 003°45'0 0.0
2015-Jan-27 00:13N 51°55' E 003°45'58 9.4
2015-Jan-26 18:04N 51°32' E 002°19'911.4
2015-Jan-26 17:15N 51°24' E 002°11'811.0
2015-Jan-26 16:32N 51°17' E 002°06'1111.5
2015-Jan-26 15:33N 51°10' E 001°52'1212.4
2015-Jan-26 14:33N 51°01' E 001°38'  
2015-Jan-22 08:11N 38°36' W 009°55'4 5.9
2015-Jan-22 07:33N 38°33' W 009°54'6 5.6
2015-Jan-22 06:30N 38°27' W 009°51'8 5.9
2015-Jan-22 05:07N 38°22' W 009°43'6 5.7
2015-Jan-22 04:06N 38°19' W 009°37'4 5.8
2015-Jan-22 03:22N 38°16' W 009°33'  

Dump ship's entire track history